Latest Weather Observations for Smithton

IDT60801

Issued at 8:02 pm EST Wednesday 28 September 2016 (issued every 30 minutes, with the page automatically refreshed every 10 minutes)

About weather observations | Map of weather stations | Latest weather observations for TAS | Other Formats
Station Details ID: 091292 Name: SMITHTON AERODROME Lat: -40.83 Lon: 145.08 Height: 7.5 m
Data from the previous 72 hours. | See also: Recent months at Smithton
Date/Time
EST
Temp
°C
App
Temp
°C
Dew
Point
°C
Rel
Hum
%
Delta-T
°C
Wind Press
QNH
hPa
Press
MSL
hPa
Rain since
9am
mm
Dir  Spd
km/h
Gust
km/h
Spd
kts
Gust
kts
28/08:00pm 11.7 6.6 9.1 84 1.3 E 26 37 14 20 1002.9 - 0.0
28/07:30pm 11.5 7.1 9.1 85 1.2 E 22 32 12 17 1003.4 - 0.0
28/07:00pm 11.5 7.1 8.9 84 1.3 E 22 32 12 17 1003.7 - 0.0
28/06:30pm 11.9 6.8 9.1 83 1.4 ENE 26 35 14 19 1003.9 - 0.0
28/06:00pm 12.0 7.7 9.2 83 1.4 ENE 22 28 12 15 1004.0 1004.0 0.0
28/05:30pm 12.2 7.4 8.9 80 1.6 ENE 24 33 13 18 1003.7 - 0.0
28/05:00pm 12.7 7.8 8.4 75 2.1 ENE 24 33 13 18 1003.9 - 0.0
28/04:30pm 13.2 8.6 8.1 71 2.5 ENE 22 30 12 16 1004.0 - 0.0
28/04:00pm 13.6 8.4 8.7 72 2.5 NE 26 32 14 17 1004.4 - 0.0
28/03:30pm 14.2 9.2 8.2 67 3.0 NE 24 32 13 17 1005.0 - 0.0
28/03:00pm 14.8 10.3 6.9 59 3.9 NE 20 26 11 14 1004.6 1004.6 0.0
28/02:30pm 14.2 9.8 9.0 71 2.6 ENE 22 26 12 14 1005.3 - 0.0
28/02:00pm 14.2 9.5 7.9 66 3.1 NE 22 32 12 17 1006.2 - 0.0
28/01:30pm 14.4 10.0 9.0 70 2.7 NNE 22 30 12 16 1007.2 - 0.0
28/01:00pm 14.4 10.0 9.0 70 2.7 NNE 22 30 12 16 1007.7 - 0.0
28/12:30pm 14.1 9.7 8.9 71 2.6 NNE 22 26 12 14 1008.2 - 0.0
28/12:00pm 14.8 11.2 9.8 72 2.6 NNE 19 24 10 13 1008.6 1008.6 0.0
28/11:30am 13.9 10.2 9.3 74 2.3 NE 19 24 10 13 1008.9 - 0.0
28/11:00am 14.0 10.3 9.6 75 2.3 N 19 22 10 12 1009.3 - 0.0
28/10:30am 13.5 10.2 9.4 76 2.1 NNE 17 22 9 12 1009.6 - 0.0
28/10:00am 13.9 11.1 8.5 70 2.7 NNE 13 17 7 9 1009.9 - 0.0
28/09:30am 13.4 11.1 8.9 74 2.3 N 11 15 6 8 1010.2 - 0.0
28/09:00am 12.8 10.9 8.9 77 2.0 NW 9 13 5 7 1010.4 1010.4 2.4
28/08:30am 11.5 10.6 10.7 95 0.4 NW 6 9 3 5 1010.4 - 2.4
28/08:00am 10.8 11.0 10.5 98 0.2 CALM 0 0 0 0 1010.5 - 2.4
28/07:30am 9.1 8.8 8.8 98 0.1 CALM 0 0 0 0 1010.6 - 2.4
28/07:00am 7.9 6.2 7.6 98 0.1 W 6 6 3 3 1010.5 - 2.4
28/06:30am 8.1 6.2 7.7 97 0.2 W 7 7 4 4 1010.4 - 2.4
28/06:00am 9.1 8.8 8.6 97 0.2 CALM 0 0 0 0 1010.1 1010.1 2.4
28/05:30am 9.4 8.8 8.9 97 0.2 W 2 6 1 3 1010.0 - 2.4
28/05:00am 9.5 8.0 9.0 97 0.2 W 7 9 4 5 1009.9 - 2.4
28/04:30am 9.4 7.8 8.9 97 0.2 W 7 9 4 5 1009.9 - 2.4
28/04:00am 9.5 8.1 8.9 96 0.3 W 6 7 3 4 1009.6 - 2.4
28/03:30am 9.4 8.0 8.8 96 0.3 W 6 7 3 4 1009.6 - 2.4
28/03:00am 10.0 8.5 9.2 95 0.4 W 7 9 4 5 1009.5 1009.5 2.4
28/02:30am 10.1 7.9 9.3 95 0.4 NW 11 15 6 8 1009.6 - 2.4
28/02:00am 10.1 8.6 9.3 95 0.4 W 7 9 4 5 1009.8 - 2.4
28/01:30am 10.2 8.8 9.4 95 0.4 WNW 7 9 4 5 1009.7 - 2.4
28/01:00am 10.4 9.2 9.6 95 0.4 W 6 7 3 4 1009.9 - 2.4
28/12:30am 10.5 8.4 9.6 94 0.5 W 11 15 6 8 1010.0 - 2.4
28/12:00am 10.4 7.5 9.5 94 0.5 WNW 15 17 8 9 1010.0 1010.0 2.4
 
Date/Time
EST
Temp
°C
App
Temp
°C
Dew
Point
°C
Rel
Hum
%
Delta-T
°C
Wind Press
QNH
hPa
Press
MSL
hPa
Rain since
9am
mm
Dir  Spd
km/h
Gust
km/h
Spd
kts
Gust
kts
27/11:30pm 11.1 7.6 10.2 94 0.5 WNW 19 28 10 15 1009.8 - 2.4
27/11:00pm 11.0 7.9 10.2 95 0.4 NW 17 22 9 12 1009.8 - 2.4
27/10:30pm 10.7 8.6 9.9 95 0.4 NW 11 15 6 8 1009.8 - 2.4
27/10:00pm 11.0 9.0 10.1 94 0.5 WNW 11 15 6 8 1009.9 - 2.0
27/09:30pm 10.4 9.5 9.2 92 0.6 WNW 4 7 2 4 1010.1 - 0.2
27/09:00pm 9.6 8.1 8.4 92 0.6 WNW 6 9 3 5 1010.2 1010.2 0.2
27/08:30pm 8.4 7.7 7.0 91 0.7 CALM 0 0 0 0 1010.3 - 0.2
27/08:00pm 8.3 7.5 6.6 89 0.8 CALM 0 0 0 0 1010.3 - 0.2
27/07:30pm 8.2 6.2 6.3 88 0.9 W 6 7 3 4 1010.4 - 0.2
27/07:00pm 8.7 7.8 6.2 84 1.1 CALM 0 0 0 0 1010.5 - 0.2
27/06:30pm 10.0 6.7 6.3 78 1.7 W 13 17 7 9 1010.3 - 0.2
27/06:00pm 11.3 8.1 6.8 74 2.1 W 13 19 7 10 1010.0 1010.0 0.2
27/05:30pm 12.4 8.9 7.3 71 2.5 W 15 20 8 11 1009.7 - 0.2
27/05:00pm 12.6 8.2 9.1 79 1.8 W 22 30 12 16 1009.5 - 0.2
27/04:30pm 13.0 8.3 9.4 79 1.8 WSW 24 30 13 16 1009.3 - 0.2
27/04:00pm 13.6 8.8 8.7 72 2.5 W 24 35 13 19 1008.9 - 0.2
27/03:30pm 14.2 9.5 7.9 66 3.1 W 22 28 12 15 1008.6 - 0.2
27/03:00pm 14.1 10.1 8.1 67 3.0 WNW 19 24 10 13 1008.6 1008.6 0.2
27/02:30pm 14.3 9.0 8.3 67 3.0 NW 26 32 14 17 1008.5 - 0.2
27/02:00pm 15.4 11.2 8.4 63 3.5 NW 20 30 11 16 1008.5 - 0.2
27/01:30pm 13.7 10.4 7.9 68 2.9 WSW 15 22 8 12 1008.7 - 0.2
27/01:00pm 14.4 10.1 7.0 61 3.6 WNW 19 24 10 13 1008.8 - 0.2
27/12:30pm 14.7 10.9 7.5 62 3.6 NNW 17 26 9 14 1008.8 - 0.2
27/12:00pm 14.5 11.4 8.7 68 2.9 N 15 24 8 13 1009.0 1009.0 0.2
27/11:30am 14.6 10.8 9.2 70 2.8 NNE 19 22 10 12 1008.9 - 0.0
27/11:00am 14.5 11.2 9.5 72 2.6 N 17 24 9 13 1009.1 - 0.0
27/10:30am 13.1 9.8 8.2 72 2.4 NNE 15 20 8 11 1009.1 - 0.0
27/10:00am 13.2 10.7 8.3 72 2.4 N 11 15 6 8 1009.1 - 0.0
27/09:30am 12.8 10.9 8.9 77 2.0 N 9 13 5 7 1009.2 - 0.0
27/09:00am 11.8 9.9 10.4 91 0.7 N 11 15 6 8 1008.7 1008.7 4.4
27/08:30am 10.5 9.5 10.2 98 0.2 WNW 6 9 3 5 1008.8 - 4.4
27/08:00am 8.9 7.3 8.6 98 0.1 WNW 7 9 4 5 1008.8 - 4.4
27/07:30am 8.0 6.3 7.7 98 0.1 WNW 6 7 3 4 1008.6 - 4.4
27/07:00am 6.8 4.9 6.5 98 0.1 WNW 6 7 3 4 1008.2 - 4.4
27/06:30am 6.0 3.9 5.7 98 0.1 WNW 6 7 3 4 1008.1 - 4.4
27/06:00am 6.4 4.2 6.1 98 0.1 WNW 7 7 4 4 1007.6 1007.6 4.4
27/05:30am 7.0 4.9 6.7 98 0.1 WNW 7 9 4 5 1007.5 - 4.4
27/05:00am 6.7 4.2 6.4 98 0.1 WNW 9 11 5 6 1007.4 - 4.4
27/04:30am 7.1 5.2 6.7 97 0.2 WNW 6 7 3 4 1007.3 - 4.4
27/04:00am 8.0 5.4 7.6 97 0.2 WNW 11 13 6 7 1007.3 - 4.4
27/03:30am 8.6 6.1 8.2 97 0.2 NW 11 13 6 7 1007.2 - 4.4
27/03:00am 8.7 6.6 8.3 97 0.2 NW 9 11 5 6 1007.3 1007.3 4.4
27/02:30am 8.7 6.6 8.3 97 0.2 NW 9 11 5 6 1007.4 - 4.4
27/02:00am 9.0 7.0 8.5 97 0.2 NW 9 11 5 6 1007.6 - 3.8
27/01:30am 8.6 6.9 8.2 97 0.2 NW 7 11 4 6 1007.8 - 2.4
27/01:00am 8.1 5.9 7.8 98 0.1 NW 9 13 5 7 - - 1.0
27/12:30am 6.7 4.7 6.3 97 0.2 NW 6 7 3 4 1008.2 - 1.0
27/12:00am 6.4 4.3 6.0 97 0.2 NW 6 7 3 4 1008.3 1008.3 1.0
 
Date/Time
EST
Temp
°C
App
Temp
°C
Dew
Point
°C
Rel
Hum
%
Delta-T
°C
Wind Press
QNH
hPa
Press
MSL
hPa
Rain since
9am
mm
Dir  Spd
km/h
Gust
km/h
Spd
kts
Gust
kts
26/11:30pm 6.2 4.1 5.8 97 0.2 NW 6 7 3 4 1008.6 - 1.0
26/11:00pm 6.2 3.9 5.8 97 0.2 NW 7 7 4 4 1008.8 - 1.0
26/10:30pm 5.4 2.9 4.8 96 0.3 NW 7 11 4 6 1008.9 - 1.0
26/10:00pm 6.0 4.2 5.3 95 0.3 NW 4 7 2 4 1009.0 - 1.0
26/09:30pm 6.9 5.3 6.2 95 0.3 NW 4 7 2 4 1009.0 - 1.0
26/09:00pm 6.8 5.8 5.6 92 0.5 CALM 0 0 0 0 1009.0 1009.0 1.0
26/08:30pm 8.5 6.1 7.1 91 0.7 NW 9 11 5 6 1009.1 - 1.0
26/08:00pm 8.7 6.7 7.0 89 0.8 NW 7 9 4 5 1009.0 - 1.0
26/07:30pm 9.9 8.1 7.8 87 1.0 NW 7 9 4 5 1009.0 - 1.0
26/07:00pm 9.9 7.6 7.5 85 1.1 NW 9 11 5 6 1008.9 - 1.0
26/06:30pm 10.9 8.0 6.6 75 2.0 NW 11 15 6 8 1008.6 - 1.0
26/06:00pm 12.2 9.4 7.1 71 2.5 NW 11 13 6 7 1008.5 1008.5 1.0
26/05:30pm 12.9 9.3 6.7 66 3.0 NW 15 17 8 9 1008.4 - 1.0
26/05:00pm 13.6 9.0 5.7 59 3.7 NNW 19 24 10 13 1008.3 - 1.0
26/04:30pm 14.0 9.7 5.1 55 4.2 NNW 17 22 9 12 1008.2 - 1.0
26/04:00pm 14.4 9.6 5.5 55 4.2 NNW 20 26 11 14 1008.2 - 1.0
26/03:30pm 14.3 9.8 6.2 58 3.9 NNW 19 28 10 15 1008.3 - 1.0
26/03:00pm 14.2 9.9 7.0 62 3.5 NNW 19 26 10 14 1008.5 1008.5 1.0
26/02:30pm 15.0 10.8 7.5 61 3.7 NNW 19 26 10 14 1008.6 - 1.0
26/02:00pm 12.6 8.7 7.3 70 2.6 NW 17 22 9 12 1008.8 - 1.0
26/01:30pm 13.1 9.0 8.8 75 2.2 N 20 28 11 15 1009.0 - 1.0
26/01:00pm 12.3 7.9 9.1 81 1.6 N 22 30 12 16 1009.3 - 1.0
26/12:30pm 12.6 8.1 8.7 77 1.9 N 22 32 12 17 1009.6 - 1.0
26/12:00pm 12.9 8.8 8.6 75 2.1 NNE 20 24 11 13 1009.9 1009.9 1.0
26/11:30am 12.5 9.5 9.3 81 1.6 N 15 22 8 12 1010.3 - 1.0
26/11:00am 10.1 6.2 8.5 90 0.8 N 19 30 10 16 1010.7 - 1.0
26/10:30am 13.7 9.5 7.5 66 3.0 NNE 19 22 10 12 1010.7 - 0.0
26/10:00am 13.1 10.4 7.3 68 2.8 N 11 17 6 9 1010.8 - 0.0
26/09:30am 12.3 9.5 6.8 69 2.6 N 11 15 6 8 1011.1 - 0.0
26/09:00am 12.3 10.2 8.2 76 2.0 NNW 9 15 5 8 1011.2 1011.2 0.0
26/08:30am 10.3 8.9 9.7 96 0.3 SW 7 9 4 5 1011.4 - 0.0
26/08:00am 8.4 8.0 8.1 98 0.1 CALM 0 0 0 0 1011.5 - 0.0
26/07:30am 7.4 6.7 7.1 98 0.1 CALM 0 0 0 0 1011.5 - 0.0
26/07:00am 6.0 3.7 5.7 98 0.1 SW 7 7 4 4 1011.3 - 0.0
26/06:30am 5.4 3.1 5.0 97 0.2 SW 6 7 3 4 1011.3 - 0.0
26/06:00am 5.4 2.9 5.0 97 0.2 SW 7 11 4 6 1011.3 1011.3 0.0
26/05:30am 5.4 3.1 5.0 97 0.2 SW 6 9 3 5 1011.2 - 0.0
26/05:00am 5.7 4.6 5.3 97 0.2 CALM 0 0 0 0 1011.2 - 0.0
26/04:30am 5.9 3.7 5.5 97 0.2 SW 6 7 3 4 1011.3 - 0.0
26/04:00am 6.2 4.1 5.8 97 0.2 SW 6 7 3 4 1011.2 - 0.0
26/03:30am 5.9 4.9 5.5 97 0.2 CALM 0 0 0 0 1011.4 - 0.0
26/03:00am 5.6 3.8 5.2 97 0.2 SW 4 6 2 3 1011.4 1011.4 0.0
26/02:30am 5.4 2.9 5.0 97 0.2 SW 7 9 4 5 1011.6 - 0.0
26/02:00am 4.9 2.4 4.5 97 0.2 SW 7 9 4 5 1011.8 - 0.0
26/01:30am 4.1 1.4 3.7 97 0.2 SW 7 9 4 5 1012.0 - 0.0
26/01:00am 4.3 1.2 3.7 96 0.2 SW 9 11 5 6 1012.1 - 0.0
26/12:30am 4.8 3.5 4.2 96 0.3 CALM 0 0 0 0 1012.1 - 0.0
26/12:00am 4.9 3.6 4.3 96 0.3 CALM 0 4 0 2 1012.2 1012.2 0.0
 
Date/Time
EST
Temp
°C
App
Temp
°C
Dew
Point
°C
Rel
Hum
%
Delta-T
°C
Wind Press
QNH
hPa
Press
MSL
hPa
Rain since
9am
mm
Dir  Spd
km/h
Gust
km/h
Spd
kts
Gust
kts
25/11:30pm 4.9 3.6 4.3 96 0.3 CALM 0 0 0 0 1012.4 - 0.0
25/11:00pm 5.0 3.7 4.3 95 0.3 CALM 0 0 0 0 1012.5 - 0.0
25/10:30pm 5.1 3.9 4.4 95 0.3 CALM 0 0 0 0 1012.7 - 0.0
25/10:00pm 4.8 3.5 3.9 94 0.4 CALM 0 0 0 0 1012.6 - 0.0
25/09:30pm 5.7 4.5 4.5 92 0.5 CALM 0 0 0 0 1012.6 - 0.0
25/09:00pm 6.4 4.2 5.2 92 0.5 SW 6 7 3 4 1012.5 1012.5 0.0
25/08:30pm 6.4 4.1 4.9 90 0.7 SW 6 7 3 4 1012.4 - 0.0

Other Formats:

Comma delimited format used in spreadsheet applications
http://www.bom.gov.au/fwo/IDT60801/IDT60801.94953.axf

JavaScript Object Notation format (JSON) in row-major order
http://www.bom.gov.au/fwo/IDT60801/IDT60801.94953.json